sensor_id;sensor_type;location;lat;lon;timestamp;temperature;humidity
6146;DHT22;3104;50.348;7.620;2023-02-28T00:00:25;1.70;99.90
6146;DHT22;3104;50.348;7.620;2023-02-28T00:02:51;1.70;99.90
6146;DHT22;3104;50.348;7.620;2023-02-28T00:05:19;1.80;99.90
6146;DHT22;3104;50.348;7.620;2023-02-28T00:07:45;1.70;99.90
6146;DHT22;3104;50.348;7.620;2023-02-28T00:10:13;1.60;99.90
6146;DHT22;3104;50.348;7.620;2023-02-28T00:12:39;1.50;99.90
6146;DHT22;3104;50.348;7.620;2023-02-28T00:15:06;1.50;99.90
6146;DHT22;3104;50.348;7.620;2023-02-28T00:17:31;1.50;99.90
6146;DHT22;3104;50.348;7.620;2023-02-28T00:19:57;1.40;99.90
6146;DHT22;3104;50.348;7.620;2023-02-28T00:22:30;1.40;99.90
6146;DHT22;3104;50.348;7.620;2023-02-28T00:24:55;1.40;99.90
6146;DHT22;3104;50.348;7.620;2023-02-28T00:27:21;1.30;99.90
6146;DHT22;3104;50.348;7.620;2023-02-28T00:29:47;1.30;99.90
6146;DHT22;3104;50.348;7.620;2023-02-28T00:32:12;1.30;99.90
6146;DHT22;3104;50.348;7.620;2023-02-28T00:34:38;1.30;99.90
6146;DHT22;3104;50.348;7.620;2023-02-28T00:37:06;1.20;99.90
6146;DHT22;3104;50.348;7.620;2023-02-28T00:39:34;1.20;99.90
6146;DHT22;3104;50.348;7.620;2023-02-28T00:42:01;1.10;99.90
6146;DHT22;3104;50.348;7.620;2023-02-28T00:44:27;1.20;99.90
6146;DHT22;3104;50.348;7.620;2023-02-28T00:46:53;1.20;99.90
6146;DHT22;3104;50.348;7.620;2023-02-28T00:49:20;1.20;99.90
6146;DHT22;3104;50.348;7.620;2023-02-28T00:51:46;1.10;99.90
6146;DHT22;3104;50.348;7.620;2023-02-28T00:54:12;1.20;99.90
6146;DHT22;3104;50.348;7.620;2023-02-28T00:56:37;1.00;99.90
6146;DHT22;3104;50.348;7.620;2023-02-28T00:59:03;1.00;99.90
6146;DHT22;3104;50.348;7.620;2023-02-28T01:01:29;1.00;99.90
6146;DHT22;3104;50.348;7.620;2023-02-28T01:03:54;1.00;99.90
6146;DHT22;3104;50.348;7.620;2023-02-28T01:06:20;1.00;99.90
6146;DHT22;3104;50.348;7.620;2023-02-28T01:08:45;1.00;99.90
6146;DHT22;3104;50.348;7.620;2023-02-28T01:11:12;1.00;99.90
6146;DHT22;3104;50.348;7.620;2023-02-28T01:13:40;1.00;99.90
6146;DHT22;3104;50.348;7.620;2023-02-28T01:16:06;1.00;99.90
6146;DHT22;3104;50.348;7.620;2023-02-28T01:18:32;1.00;99.90
6146;DHT22;3104;50.348;7.620;2023-02-28T01:20:57;1.00;99.90
6146;DHT22;3104;50.348;7.620;2023-02-28T01:23:23;0.90;99.90
6146;DHT22;3104;50.348;7.620;2023-02-28T01:25:52;0.90;99.90
6146;DHT22;3104;50.348;7.620;2023-02-28T01:28:18;0.90;99.90
6146;DHT22;3104;50.348;7.620;2023-02-28T01:30:47;0.90;99.90
6146;DHT22;3104;50.348;7.620;2023-02-28T01:33:13;0.90;99.90
6146;DHT22;3104;50.348;7.620;2023-02-28T01:35:39;1.10;99.90
6146;DHT22;3104;50.348;7.620;2023-02-28T01:38:04;1.10;99.90
6146;DHT22;3104;50.348;7.620;2023-02-28T01:40:30;1.20;99.90
6146;DHT22;3104;50.348;7.620;2023-02-28T01:42:55;1.20;99.90
6146;DHT22;3104;50.348;7.620;2023-02-28T01:45:31;1.20;99.90
6146;DHT22;3104;50.348;7.620;2023-02-28T01:48:02;1.00;99.90
6146;DHT22;3104;50.348;7.620;2023-02-28T01:50:33;0.70;99.90
6146;DHT22;3104;50.348;7.620;2023-02-28T01:53:03;0.60;99.90
6146;DHT22;3104;50.348;7.620;2023-02-28T01:55:30;0.60;99.90
6146;DHT22;3104;50.348;7.620;2023-02-28T01:58:00;0.50;99.90
6146;DHT22;3104;50.348;7.620;2023-02-28T02:00:28;0.50;99.90
6146;DHT22;3104;50.348;7.620;2023-02-28T02:03:01;0.50;99.90
6146;DHT22;3104;50.348;7.620;2023-02-28T02:05:30;0.50;99.90
6146;DHT22;3104;50.348;7.620;2023-02-28T02:08:00;0.50;99.90
6146;DHT22;3104;50.348;7.620;2023-02-28T02:10:31;0.50;99.90
6146;DHT22;3104;50.348;7.620;2023-02-28T02:15:44;0.50;99.90
6146;DHT22;3104;50.348;7.620;2023-02-28T02:27:20;0.60;99.90
6146;DHT22;3104;50.348;7.620;2023-02-28T02:30:17;0.80;99.90
6146;DHT22;3104;50.348;7.620;2023-02-28T02:35:43;0.50;99.90
6146;DHT22;3104;50.348;7.620;2023-02-28T02:38:18;0.60;99.90
6146;DHT22;3104;50.348;7.620;2023-02-28T02:41:14;0.50;99.90
6146;DHT22;3104;50.348;7.620;2023-02-28T02:43:56;0.50;99.90
6146;DHT22;3104;50.348;7.620;2023-02-28T02:46:28;0.50;99.90
6146;DHT22;3104;50.348;7.620;2023-02-28T02:48:56;0.50;99.90
6146;DHT22;3104;50.348;7.620;2023-02-28T02:51:24;0.50;99.90
6146;DHT22;3104;50.348;7.620;2023-02-28T02:53:54;0.50;99.90
6146;DHT22;3104;50.348;7.620;2023-02-28T02:56:24;0.50;99.90
6146;DHT22;3104;50.348;7.620;2023-02-28T02:58:53;0.60;99.90
6146;DHT22;3104;50.348;7.620;2023-02-28T03:01:23;0.40;99.90
6146;DHT22;3104;50.348;7.620;2023-02-28T03:04:02;0.40;99.90
6146;DHT22;3104;50.348;7.620;2023-02-28T03:06:29;0.20;99.90
6146;DHT22;3104;50.348;7.620;2023-02-28T03:08:54;0.20;99.90
6146;DHT22;3104;50.348;7.620;2023-02-28T03:11:20;0.20;99.90
6146;DHT22;3104;50.348;7.620;2023-02-28T03:14:01;0.20;99.90
6146;DHT22;3104;50.348;7.620;2023-02-28T03:27:53;-0.10;99.90
6146;DHT22;3104;50.348;7.620;2023-02-28T03:30:33;0.00;99.90
6146;DHT22;3104;50.348;7.620;2023-02-28T03:33:08;0.00;99.90
6146;DHT22;3104;50.348;7.620;2023-02-28T03:35:42;0.00;99.90
6146;DHT22;3104;50.348;7.620;2023-02-28T03:41:13;-0.10;99.90
6146;DHT22;3104;50.348;7.620;2023-02-28T03:43:43;0.00;99.90
6146;DHT22;3104;50.348;7.620;2023-02-28T03:46:13;-0.10;99.90
6146;DHT22;3104;50.348;7.620;2023-02-28T03:48:53;-0.10;99.90
6146;DHT22;3104;50.348;7.620;2023-02-28T03:51:23;-0.10;99.90
6146;DHT22;3104;50.348;7.620;2023-02-28T03:53:57;-0.10;99.90
6146;DHT22;3104;50.348;7.620;2023-02-28T03:56:33;0.00;99.90
6146;DHT22;3104;50.348;7.620;2023-02-28T03:59:14;0.00;99.90
6146;DHT22;3104;50.348;7.620;2023-02-28T04:01:45;-0.10;99.90
6146;DHT22;3104;50.348;7.620;2023-02-28T04:04:13;-0.10;99.90
6146;DHT22;3104;50.348;7.620;2023-02-28T04:06:39;-0.10;99.90
6146;DHT22;3104;50.348;7.620;2023-02-28T04:09:07;-0.10;99.90
6146;DHT22;3104;50.348;7.620;2023-02-28T04:11:37;-0.20;99.90
6146;DHT22;3104;50.348;7.620;2023-02-28T04:14:07;-0.30;99.90
6146;DHT22;3104;50.348;7.620;2023-02-28T04:16:34;-0.30;99.90
6146;DHT22;3104;50.348;7.620;2023-02-28T04:19:00;-0.30;99.90
6146;DHT22;3104;50.348;7.620;2023-02-28T04:21:49;-0.30;99.90
6146;DHT22;3104;50.348;7.620;2023-02-28T04:24:25;-0.30;99.90
6146;DHT22;3104;50.348;7.620;2023-02-28T04:26:53;-0.40;99.90
6146;DHT22;3104;50.348;7.620;2023-02-28T04:29:30;-0.30;99.90
6146;DHT22;3104;50.348;7.620;2023-02-28T04:31:57;-0.30;99.90
6146;DHT22;3104;50.348;7.620;2023-02-28T04:34:28;-0.40;99.90
6146;DHT22;3104;50.348;7.620;2023-02-28T04:36:55;-0.40;99.90
6146;DHT22;3104;50.348;7.620;2023-02-28T04:39:22;-0.40;99.90
6146;DHT22;3104;50.348;7.620;2023-02-28T04:41:48;-0.50;99.90
6146;DHT22;3104;50.348;7.620;2023-02-28T04:44:14;-0.50;99.90
6146;DHT22;3104;50.348;7.620;2023-02-28T04:46:41;-0.50;99.90
6146;DHT22;3104;50.348;7.620;2023-02-28T04:49:08;-0.50;99.90
6146;DHT22;3104;50.348;7.620;2023-02-28T04:51:33;-0.50;99.90
6146;DHT22;3104;50.348;7.620;2023-02-28T04:53:59;-0.50;99.90
6146;DHT22;3104;50.348;7.620;2023-02-28T04:56:24;-0.50;99.90
6146;DHT22;3104;50.348;7.620;2023-02-28T04:58:50;-0.50;99.90
6146;DHT22;3104;50.348;7.620;2023-02-28T05:03:50;-0.50;99.90
6146;DHT22;3104;50.348;7.620;2023-02-28T05:06:17;-0.50;99.90
6146;DHT22;3104;50.348;7.620;2023-02-28T05:08:43;-0.50;99.90
6146;DHT22;3104;50.348;7.620;2023-02-28T05:11:21;-0.60;99.90
6146;DHT22;3104;50.348;7.620;2023-02-28T05:13:48;-0.50;99.90
6146;DHT22;3104;50.348;7.620;2023-02-28T05:16:14;-0.60;99.90
6146;DHT22;3104;50.348;7.620;2023-02-28T05:18:40;-0.60;99.90
6146;DHT22;3104;50.348;7.620;2023-02-28T05:21:06;-0.60;99.90
6146;DHT22;3104;50.348;7.620;2023-02-28T05:23:32;-0.60;99.90
6146;DHT22;3104;50.348;7.620;2023-02-28T05:25:58;-0.60;99.90
6146;DHT22;3104;50.348;7.620;2023-02-28T05:28:23;-0.50;99.90
6146;DHT22;3104;50.348;7.620;2023-02-28T05:30:49;-0.60;99.90
6146;DHT22;3104;50.348;7.620;2023-02-28T05:33:14;-0.60;99.90
6146;DHT22;3104;50.348;7.620;2023-02-28T05:35:40;-0.60;99.90
6146;DHT22;3104;50.348;7.620;2023-02-28T05:38:08;-0.60;99.90
6146;DHT22;3104;50.348;7.620;2023-02-28T05:40:34;-0.60;99.90
6146;DHT22;3104;50.348;7.620;2023-02-28T05:42:59;-0.60;99.90
6146;DHT22;3104;50.348;7.620;2023-02-28T05:45:25;-0.60;99.90
6146;DHT22;3104;50.348;7.620;2023-02-28T05:47:54;-0.70;99.90
6146;DHT22;3104;50.348;7.620;2023-02-28T05:50:20;-0.70;99.90
6146;DHT22;3104;50.348;7.620;2023-02-28T05:52:50;-0.70;99.90
6146;DHT22;3104;50.348;7.620;2023-02-28T05:55:15;-0.60;99.90
6146;DHT22;3104;50.348;7.620;2023-02-28T05:57:41;-0.60;99.90
6146;DHT22;3104;50.348;7.620;2023-02-28T06:00:09;-0.60;99.90
6146;DHT22;3104;50.348;7.620;2023-02-28T06:02:35;-0.60;99.90
6146;DHT22;3104;50.348;7.620;2023-02-28T06:05:00;-0.40;99.90
6146;DHT22;3104;50.348;7.620;2023-02-28T06:07:26;-0.30;99.90
6146;DHT22;3104;50.348;7.620;2023-02-28T06:09:51;-0.30;99.90
6146;DHT22;3104;50.348;7.620;2023-02-28T06:12:17;-0.40;99.90
6146;DHT22;3104;50.348;7.620;2023-02-28T06:14:43;-0.40;99.90
6146;DHT22;3104;50.348;7.620;2023-02-28T06:17:09;-0.50;99.90
6146;DHT22;3104;50.348;7.620;2023-02-28T06:19:37;-0.60;99.90
6146;DHT22;3104;50.348;7.620;2023-02-28T06:22:04;-0.50;99.90
6146;DHT22;3104;50.348;7.620;2023-02-28T06:24:30;-0.40;99.90
6146;DHT22;3104;50.348;7.620;2023-02-28T06:26:56;-0.40;99.90
6146;DHT22;3104;50.348;7.620;2023-02-28T06:29:24;-0.60;99.90
6146;DHT22;3104;50.348;7.620;2023-02-28T06:31:49;-0.60;99.90
6146;DHT22;3104;50.348;7.620;2023-02-28T06:34:15;-0.50;99.90
6146;DHT22;3104;50.348;7.620;2023-02-28T06:36:41;-0.40;99.90
6146;DHT22;3104;50.348;7.620;2023-02-28T06:39:07;0.20;99.90
6146;DHT22;3104;50.348;7.620;2023-02-28T06:41:33;0.30;99.90
6146;DHT22;3104;50.348;7.620;2023-02-28T06:44:12;1.10;99.90
6146;DHT22;3104;50.348;7.620;2023-02-28T06:46:40;0.60;99.90
6146;DHT22;3104;50.348;7.620;2023-02-28T06:49:06;0.20;99.90
6146;DHT22;3104;50.348;7.620;2023-02-28T06:51:34;0.20;99.90
6146;DHT22;3104;50.348;7.620;2023-02-28T06:54:00;0.00;99.90
6146;DHT22;3104;50.348;7.620;2023-02-28T06:56:26;-0.20;99.90
6146;DHT22;3104;50.348;7.620;2023-02-28T06:58:51;-0.20;99.90
6146;DHT22;3104;50.348;7.620;2023-02-28T07:01:18;-0.30;99.90
6146;DHT22;3104;50.348;7.620;2023-02-28T07:03:45;-0.30;99.90
6146;DHT22;3104;50.348;7.620;2023-02-28T07:06:10;-0.30;99.90
6146;DHT22;3104;50.348;7.620;2023-02-28T07:08:36;-0.40;99.90
6146;DHT22;3104;50.348;7.620;2023-02-28T07:11:02;-0.30;99.90
6146;DHT22;3104;50.348;7.620;2023-02-28T07:13:28;-0.30;99.90
6146;DHT22;3104;50.348;7.620;2023-02-28T07:15:56;-0.40;99.90
6146;DHT22;3104;50.348;7.620;2023-02-28T07:18:22;-0.30;99.90
6146;DHT22;3104;50.348;7.620;2023-02-28T07:20:48;-0.20;99.90
6146;DHT22;3104;50.348;7.620;2023-02-28T07:23:13;-0.30;99.90
6146;DHT22;3104;50.348;7.620;2023-02-28T07:25:39;-0.30;99.90
6146;DHT22;3104;50.348;7.620;2023-02-28T07:28:05;-0.40;99.90
6146;DHT22;3104;50.348;7.620;2023-02-28T07:30:30;-0.20;99.90
6146;DHT22;3104;50.348;7.620;2023-02-28T07:32:56;0.10;99.90
6146;DHT22;3104;50.348;7.620;2023-02-28T07:35:22;0.20;99.90
6146;DHT22;3104;50.348;7.620;2023-02-28T07:37:47;0.10;99.90
6146;DHT22;3104;50.348;7.620;2023-02-28T07:40:13;0.30;99.90
6146;DHT22;3104;50.348;7.620;2023-02-28T07:42:40;0.20;99.90
6146;DHT22;3104;50.348;7.620;2023-02-28T07:45:08;0.20;99.90
6146;DHT22;3104;50.348;7.620;2023-02-28T07:47:37;0.20;99.90
6146;DHT22;3104;50.348;7.620;2023-02-28T07:50:03;0.20;99.90
6146;DHT22;3104;50.348;7.620;2023-02-28T07:52:29;0.10;99.90
6146;DHT22;3104;50.348;7.620;2023-02-28T07:54:54;0.30;99.90
6146;DHT22;3104;50.348;7.620;2023-02-28T07:57:20;0.30;99.90
6146;DHT22;3104;50.348;7.620;2023-02-28T07:59:46;0.50;99.90
6146;DHT22;3104;50.348;7.620;2023-02-28T08:02:14;0.60;99.90
6146;DHT22;3104;50.348;7.620;2023-02-28T08:04:39;0.60;99.90
6146;DHT22;3104;50.348;7.620;2023-02-28T08:07:05;0.70;99.90
6146;DHT22;3104;50.348;7.620;2023-02-28T08:09:30;0.70;99.90
6146;DHT22;3104;50.348;7.620;2023-02-28T08:11:56;1.00;99.90
6146;DHT22;3104;50.348;7.620;2023-02-28T08:14:22;1.20;99.90
6146;DHT22;3104;50.348;7.620;2023-02-28T08:16:47;1.20;99.90
6146;DHT22;3104;50.348;7.620;2023-02-28T08:19:13;1.20;99.90
6146;DHT22;3104;50.348;7.620;2023-02-28T08:21:38;1.30;99.90
6146;DHT22;3104;50.348;7.620;2023-02-28T08:24:05;1.30;98.80
6146;DHT22;3104;50.348;7.620;2023-02-28T08:26:31;1.30;97.10
6146;DHT22;3104;50.348;7.620;2023-02-28T08:28:57;1.40;94.70
6146;DHT22;3104;50.348;7.620;2023-02-28T08:31:22;1.40;89.70
6146;DHT22;3104;50.348;7.620;2023-02-28T08:33:48;1.30;87.90
6146;DHT22;3104;50.348;7.620;2023-02-28T08:36:16;1.40;91.00
6146;DHT22;3104;50.348;7.620;2023-02-28T08:38:42;1.60;85.80
6146;DHT22;3104;50.348;7.620;2023-02-28T08:41:10;1.60;79.00
6146;DHT22;3104;50.348;7.620;2023-02-28T08:43:36;1.70;79.10
6146;DHT22;3104;50.348;7.620;2023-02-28T08:46:03;1.60;79.50
6146;DHT22;3104;50.348;7.620;2023-02-28T08:48:31;1.70;75.20
6146;DHT22;3104;50.348;7.620;2023-02-28T08:50:59;1.80;76.50
6146;DHT22;3104;50.348;7.620;2023-02-28T08:53:25;1.90;72.50
6146;DHT22;3104;50.348;7.620;2023-02-28T08:56:05;1.80;71.80
6146;DHT22;3104;50.348;7.620;2023-02-28T08:58:31;1.90;71.80
6146;DHT22;3104;50.348;7.620;2023-02-28T09:00:57;1.80;69.40
6146;DHT22;3104;50.348;7.620;2023-02-28T09:03:23;1.90;73.30
6146;DHT22;3104;50.348;7.620;2023-02-28T09:05:57;2.00;68.90
6146;DHT22;3104;50.348;7.620;2023-02-28T09:08:24;2.00;67.70
6146;DHT22;3104;50.348;7.620;2023-02-28T09:10:50;2.00;62.60
6146;DHT22;3104;50.348;7.620;2023-02-28T09:13:16;1.90;64.20
6146;DHT22;3104;50.348;7.620;2023-02-28T09:15:42;1.80;60.80
6146;DHT22;3104;50.348;7.620;2023-02-28T09:18:08;2.00;59.50
6146;DHT22;3104;50.348;7.620;2023-02-28T09:20:33;2.10;58.50
6146;DHT22;3104;50.348;7.620;2023-02-28T09:22:59;2.00;56.50
6146;DHT22;3104;50.348;7.620;2023-02-28T09:25:24;2.10;63.50
6146;DHT22;3104;50.348;7.620;2023-02-28T09:27:50;2.30;59.50
6146;DHT22;3104;50.348;7.620;2023-02-28T09:30:16;2.60;57.90
6146;DHT22;3104;50.348;7.620;2023-02-28T09:32:41;3.30;54.10
6146;DHT22;3104;50.348;7.620;2023-02-28T09:35:07;2.80;43.40
6146;DHT22;3104;50.348;7.620;2023-02-28T09:37:38;2.70;47.60
6146;DHT22;3104;50.348;7.620;2023-02-28T09:40:04;3.60;36.70
6146;DHT22;3104;50.348;7.620;2023-02-28T09:42:32;3.70;38.20
6146;DHT22;3104;50.348;7.620;2023-02-28T09:45:02;4.10;32.90
6146;DHT22;3104;50.348;7.620;2023-02-28T09:47:36;4.40;29.00
6146;DHT22;3104;50.348;7.620;2023-02-28T09:52:52;5.40;26.10
6146;DHT22;3104;50.348;7.620;2023-02-28T09:55:33;6.00;21.40
6146;DHT22;3104;50.348;7.620;2023-02-28T09:58:01;5.80;22.00
6146;DHT22;3104;50.348;7.620;2023-02-28T10:00:33;5.50;20.80
6146;DHT22;3104;50.348;7.620;2023-02-28T10:05:53;5.50;22.80
6146;DHT22;3104;50.348;7.620;2023-02-28T10:08:47;6.10;17.20
6146;DHT22;3104;50.348;7.620;2023-02-28T10:11:18;3.70;24.00
6146;DHT22;3104;50.348;7.620;2023-02-28T10:16:41;4.30;23.90
6146;DHT22;3104;50.348;7.620;2023-02-28T10:22:05;5.20;17.80
6146;DHT22;3104;50.348;7.620;2023-02-28T10:24:37;5.70;17.60
6146;DHT22;3104;50.348;7.620;2023-02-28T10:27:15;5.70;15.90
6146;DHT22;3104;50.348;7.620;2023-02-28T10:29:47;5.80;17.70
6146;DHT22;3104;50.348;7.620;2023-02-28T10:32:16;5.60;15.50
6146;DHT22;3104;50.348;7.620;2023-02-28T10:34:42;5.40;16.40
6146;DHT22;3104;50.348;7.620;2023-02-28T10:37:08;6.50;14.60
6146;DHT22;3104;50.348;7.620;2023-02-28T10:42:28;6.80;11.30
6146;DHT22;3104;50.348;7.620;2023-02-28T10:58:30;5.20;11.70
6146;DHT22;3104;50.348;7.620;2023-02-28T11:00:56;6.20;11.10
6146;DHT22;3104;50.348;7.620;2023-02-28T11:03:34;7.20;8.50
6146;DHT22;3104;50.348;7.620;2023-02-28T11:06:12;8.00;8.60
6146;DHT22;3104;50.348;7.620;2023-02-28T11:08:53;8.80;3.40
6146;DHT22;3104;50.348;7.620;2023-02-28T11:11:21;8.40;2.10
6146;DHT22;3104;50.348;7.620;2023-02-28T11:13:51;8.00;1.00
6146;DHT22;3104;50.348;7.620;2023-02-28T11:16:18;6.80;3.70
6146;DHT22;3104;50.348;7.620;2023-02-28T11:18:53;6.60;5.60
6146;DHT22;3104;50.348;7.620;2023-02-28T11:21:37;6.50;3.00
6146;DHT22;3104;50.348;7.620;2023-02-28T11:24:44;5.80;4.70
6146;DHT22;3104;50.348;7.620;2023-02-28T11:29:56;6.60;3.90
6146;DHT22;3104;50.348;7.620;2023-02-28T11:32:24;5.40;5.00
6146;DHT22;3104;50.348;7.620;2023-02-28T11:37:38;6.60;5.40
6146;DHT22;3104;50.348;7.620;2023-02-28T11:40:20;6.70;5.80
6146;DHT22;3104;50.348;7.620;2023-02-28T11:50:57;7.10;1.00
6146;DHT22;3104;50.348;7.620;2023-02-28T11:56:25;6.40;4.30
6146;DHT22;3104;50.348;7.620;2023-02-28T11:59:10;6.40;4.60
6146;DHT22;3104;50.348;7.620;2023-02-28T12:04:52;6.80;1.30
6146;DHT22;3104;50.348;7.620;2023-02-28T12:10:09;7.20;3.40
6146;DHT22;3104;50.348;7.620;2023-02-28T12:20:49;5.70;2.60
6146;DHT22;3104;50.348;7.620;2023-02-28T12:24:25;5.50;2.10
6146;DHT22;3104;50.348;7.620;2023-02-28T12:26:39;5.50;2.80
6146;DHT22;3104;50.348;7.620;2023-02-28T12:29:19;5.50;2.30
6146;DHT22;3104;50.348;7.620;2023-02-28T12:32:13;5.50;2.40
6146;DHT22;3104;50.348;7.620;2023-02-28T12:34:47;5.40;2.40
6146;DHT22;3104;50.348;7.620;2023-02-28T12:37:21;5.80;3.30
6146;DHT22;3104;50.348;7.620;2023-02-28T12:39:51;6.10;3.10
6146;DHT22;3104;50.348;7.620;2023-02-28T12:42:27;5.90;1.90
6146;DHT22;3104;50.348;7.620;2023-02-28T12:45:01;5.80;3.00
6146;DHT22;3104;50.348;7.620;2023-02-28T12:47:27;5.80;1.90
6146;DHT22;3104;50.348;7.620;2023-02-28T12:50:07;5.60;2.60
6146;DHT22;3104;50.348;7.620;2023-02-28T12:55:19;6.20;1.90
6146;DHT22;3104;50.348;7.620;2023-02-28T12:57:57;6.60;1.70
6146;DHT22;3104;50.348;7.620;2023-02-28T13:00:32;6.60;2.00
6146;DHT22;3104;50.348;7.620;2023-02-28T13:06:08;5.90;1.10
6146;DHT22;3104;50.348;7.620;2023-02-28T13:11:34;6.00;1.80
6146;DHT22;3104;50.348;7.620;2023-02-28T13:14:06;5.50;1.00
6146;DHT22;3104;50.348;7.620;2023-02-28T13:19:57;5.70;1.10
6146;DHT22;3104;50.348;7.620;2023-02-28T13:22:43;5.90;1.80
6146;DHT22;3104;50.348;7.620;2023-02-28T13:27:47;5.30;4.30
6146;DHT22;3104;50.348;7.620;2023-02-28T13:33:31;5.50;5.00
6146;DHT22;3104;50.348;7.620;2023-02-28T13:38:52;6.10;5.90
6146;DHT22;3104;50.348;7.620;2023-02-28T13:44:21;6.40;3.80
6146;DHT22;3104;50.348;7.620;2023-02-28T13:54:56;6.50;5.60
6146;DHT22;3104;50.348;7.620;2023-02-28T13:57:34;6.00;5.60
6146;DHT22;3104;50.348;7.620;2023-02-28T14:00:23;5.50;6.30
6146;DHT22;3104;50.348;7.620;2023-02-28T14:05:43;5.70;5.90
6146;DHT22;3104;50.348;7.620;2023-02-28T14:08:21;5.40;6.10
6146;DHT22;3104;50.348;7.620;2023-02-28T14:10:49;5.40;7.00
6146;DHT22;3104;50.348;7.620;2023-02-28T14:16:06;5.40;8.00
6146;DHT22;3104;50.348;7.620;2023-02-28T14:18:36;5.30;8.30
6146;DHT22;3104;50.348;7.620;2023-02-28T14:21:30;5.40;7.50
6146;DHT22;3104;50.348;7.620;2023-02-28T14:29:18;5.50;9.90
6146;DHT22;3104;50.348;7.620;2023-02-28T14:31:57;5.70;9.60
6146;DHT22;3104;50.348;7.620;2023-02-28T14:34:37;5.30;10.60
6146;DHT22;3104;50.348;7.620;2023-02-28T14:37:09;5.60;10.70
6146;DHT22;3104;50.348;7.620;2023-02-28T14:39:36;5.90;10.50
6146;DHT22;3104;50.348;7.620;2023-02-28T14:42:30;6.60;11.40
6146;DHT22;3104;50.348;7.620;2023-02-28T14:44:57;6.00;9.60
6146;DHT22;3104;50.348;7.620;2023-02-28T14:47:25;5.70;10.80
6146;DHT22;3104;50.348;7.620;2023-02-28T14:49:52;5.40;12.10
6146;DHT22;3104;50.348;7.620;2023-02-28T14:52:21;5.70;12.40
6146;DHT22;3104;50.348;7.620;2023-02-28T14:54:56;6.10;10.70
6146;DHT22;3104;50.348;7.620;2023-02-28T14:57:25;5.90;11.90
6146;DHT22;3104;50.348;7.620;2023-02-28T15:00:11;5.40;12.20
6146;DHT22;3104;50.348;7.620;2023-02-28T15:02:38;5.30;12.80
6146;DHT22;3104;50.348;7.620;2023-02-28T15:07:42;4.90;13.70
6146;DHT22;3104;50.348;7.620;2023-02-28T15:12:41;5.30;15.70
6146;DHT22;3104;50.348;7.620;2023-02-28T15:15:18;5.50;15.40
6146;DHT22;3104;50.348;7.620;2023-02-28T15:17:51;5.20;15.40
6146;DHT22;3104;50.348;7.620;2023-02-28T15:20:18;5.00;14.80
6146;DHT22;3104;50.348;7.620;2023-02-28T15:22:45;5.20;15.90
6146;DHT22;3104;50.348;7.620;2023-02-28T15:25:15;5.10;15.80
6146;DHT22;3104;50.348;7.620;2023-02-28T15:27:47;5.00;16.90
6146;DHT22;3104;50.348;7.620;2023-02-28T15:30:18;5.20;16.90
6146;DHT22;3104;50.348;7.620;2023-02-28T15:32:45;5.00;16.60
6146;DHT22;3104;50.348;7.620;2023-02-28T15:35:29;5.10;16.00
6146;DHT22;3104;50.348;7.620;2023-02-28T15:37:57;5.00;16.50
6146;DHT22;3104;50.348;7.620;2023-02-28T15:40:30;5.20;17.60
6146;DHT22;3104;50.348;7.620;2023-02-28T15:45:38;5.20;18.70
6146;DHT22;3104;50.348;7.620;2023-02-28T15:48:20;5.00;16.00
6146;DHT22;3104;50.348;7.620;2023-02-28T15:50:52;5.10;17.00
6146;DHT22;3104;50.348;7.620;2023-02-28T15:53:22;5.10;16.30
6146;DHT22;3104;50.348;7.620;2023-02-28T15:55:58;5.10;17.50
6146;DHT22;3104;50.348;7.620;2023-02-28T15:58:24;5.10;16.80
6146;DHT22;3104;50.348;7.620;2023-02-28T16:03:45;5.00;16.80
6146;DHT22;3104;50.348;7.620;2023-02-28T16:08:45;5.00;16.30
6146;DHT22;3104;50.348;7.620;2023-02-28T16:11:13;5.20;17.60
6146;DHT22;3104;50.348;7.620;2023-02-28T16:13:39;5.10;16.70
6146;DHT22;3104;50.348;7.620;2023-02-28T16:16:05;5.00;17.60
6146;DHT22;3104;50.348;7.620;2023-02-28T16:18:31;5.00;17.70
6146;DHT22;3104;50.348;7.620;2023-02-28T16:20:56;5.10;18.30
6146;DHT22;3104;50.348;7.620;2023-02-28T16:23:22;5.10;17.70
6146;DHT22;3104;50.348;7.620;2023-02-28T16:25:47;5.10;17.20
6146;DHT22;3104;50.348;7.620;2023-02-28T16:28:30;4.90;17.60
6146;DHT22;3104;50.348;7.620;2023-02-28T16:30:59;4.90;17.40
6146;DHT22;3104;50.348;7.620;2023-02-28T16:33:25;4.90;17.60
6146;DHT22;3104;50.348;7.620;2023-02-28T16:35:51;5.00;17.80
6146;DHT22;3104;50.348;7.620;2023-02-28T16:38:17;5.00;18.00
6146;DHT22;3104;50.348;7.620;2023-02-28T16:40:43;5.10;18.30
6146;DHT22;3104;50.348;7.620;2023-02-28T16:43:17;5.00;18.50
6146;DHT22;3104;50.348;7.620;2023-02-28T16:45:44;4.90;18.60
6146;DHT22;3104;50.348;7.620;2023-02-28T16:48:15;4.80;19.00
6146;DHT22;3104;50.348;7.620;2023-02-28T16:50:41;4.80;19.00
6146;DHT22;3104;50.348;7.620;2023-02-28T16:53:07;4.60;19.70
6146;DHT22;3104;50.348;7.620;2023-02-28T16:55:34;4.60;20.60
6146;DHT22;3104;50.348;7.620;2023-02-28T16:58:02;4.60;20.60
6146;DHT22;3104;50.348;7.620;2023-02-28T17:00:30;4.60;21.00
6146;DHT22;3104;50.348;7.620;2023-02-28T17:02:57;4.60;21.50
6146;DHT22;3104;50.348;7.620;2023-02-28T17:05:24;4.40;21.60
6146;DHT22;3104;50.348;7.620;2023-02-28T17:07:50;4.30;22.60
6146;DHT22;3104;50.348;7.620;2023-02-28T17:10:19;4.30;23.10
6146;DHT22;3104;50.348;7.620;2023-02-28T17:12:45;4.30;24.20
6146;DHT22;3104;50.348;7.620;2023-02-28T17:15:12;4.30;23.80
6146;DHT22;3104;50.348;7.620;2023-02-28T17:17:38;4.60;24.30
6146;DHT22;3104;50.348;7.620;2023-02-28T17:20:05;4.50;23.80
6146;DHT22;3104;50.348;7.620;2023-02-28T17:22:31;4.60;23.50
6146;DHT22;3104;50.348;7.620;2023-02-28T17:24:57;4.60;23.30
6146;DHT22;3104;50.348;7.620;2023-02-28T17:27:24;4.50;24.80
6146;DHT22;3104;50.348;7.620;2023-02-28T17:29:50;4.40;25.00
6146;DHT22;3104;50.348;7.620;2023-02-28T17:32:16;4.50;25.90
6146;DHT22;3104;50.348;7.620;2023-02-28T17:34:41;4.30;26.50
6146;DHT22;3104;50.348;7.620;2023-02-28T17:37:08;4.30;28.20
6146;DHT22;3104;50.348;7.620;2023-02-28T17:39:34;4.30;29.90
6146;DHT22;3104;50.348;7.620;2023-02-28T17:41:59;4.40;30.30
6146;DHT22;3104;50.348;7.620;2023-02-28T17:44:25;4.40;29.70
6146;DHT22;3104;50.348;7.620;2023-02-28T17:46:52;4.50;31.70
6146;DHT22;3104;50.348;7.620;2023-02-28T17:49:18;4.10;31.70
6146;DHT22;3104;50.348;7.620;2023-02-28T17:51:45;4.00;32.70
6146;DHT22;3104;50.348;7.620;2023-02-28T17:54:11;3.70;34.50
6146;DHT22;3104;50.348;7.620;2023-02-28T17:56:36;3.60;37.50
6146;DHT22;3104;50.348;7.620;2023-02-28T17:59:02;3.60;38.50
6146;DHT22;3104;50.348;7.620;2023-02-28T18:01:28;3.40;41.30
6146;DHT22;3104;50.348;7.620;2023-02-28T18:03:54;3.30;44.60
6146;DHT22;3104;50.348;7.620;2023-02-28T18:06:38;3.20;45.00
6146;DHT22;3104;50.348;7.620;2023-02-28T18:09:17;3.40;42.10
6146;DHT22;3104;50.348;7.620;2023-02-28T18:11:43;3.60;42.30
6146;DHT22;3104;50.348;7.620;2023-02-28T18:14:13;3.50;40.80
6146;DHT22;3104;50.348;7.620;2023-02-28T18:16:39;3.50;42.70
6146;DHT22;3104;50.348;7.620;2023-02-28T18:19:05;3.50;44.20
6146;DHT22;3104;50.348;7.620;2023-02-28T18:21:31;3.50;42.30
6146;DHT22;3104;50.348;7.620;2023-02-28T18:23:57;3.60;41.80
6146;DHT22;3104;50.348;7.620;2023-02-28T18:26:23;3.60;42.00
6146;DHT22;3104;50.348;7.620;2023-02-28T18:28:48;3.50;42.70
6146;DHT22;3104;50.348;7.620;2023-02-28T18:31:17;3.50;43.00
6146;DHT22;3104;50.348;7.620;2023-02-28T18:33:46;3.50;44.00
6146;DHT22;3104;50.348;7.620;2023-02-28T18:36:12;3.40;45.00
6146;DHT22;3104;50.348;7.620;2023-02-28T18:38:38;3.40;46.70
6146;DHT22;3104;50.348;7.620;2023-02-28T18:41:05;3.30;48.20
6146;DHT22;3104;50.348;7.620;2023-02-28T18:43:33;3.20;48.40
6146;DHT22;3104;50.348;7.620;2023-02-28T18:46:06;3.20;48.60
6146;DHT22;3104;50.348;7.620;2023-02-28T18:48:32;2.90;54.80
6146;DHT22;3104;50.348;7.620;2023-02-28T18:51:08;2.70;58.50
6146;DHT22;3104;50.348;7.620;2023-02-28T18:53:35;2.70;60.40
6146;DHT22;3104;50.348;7.620;2023-02-28T18:56:02;2.60;59.50